Time;durP1;ratioP1;P1;durP2;ratioP2;P2;SDS_P1;SDS_P2;PMS_P1;PMS_P2;Temp;Humidity;BMP_temperature;BMP_pressure;BME280_temperature;BME280_humidity;BME280_pressure;Samples;Min_cycle;Max_cycle;Signal;HPM_P1;HPM_P2
2023/04/25 00:00:52;;;;;;;;;6.00;6.00;;;;;13.18;61.33;100586.81;2079116;28;46824;-67
2023/04/25 00:01:52;;;;;;;;;6.20;6.20;;;;;13.17;60.72;100578.84;2071841;28;46156;-68
2023/04/25 00:02:52;;;;;;;;;6.00;5.33;;;;;13.17;60.78;100584.16;2079619;28;45600;-68
2023/04/25 00:03:53;;;;;;;;;4.00;4.00;;;;;13.15;60.74;100586.88;2079399;28;46706;-68
2023/04/25 00:04:54;;;;;;;;;6.33;5.00;;;;;13.14;60.47;100581.63;2079693;28;46962;-67
2023/04/25 00:05:56;;;;;;;;;4.00;4.00;;;;;13.13;60.87;100578.09;2079706;28;46753;-68
2023/04/25 00:06:57;;;;;;;;;3.75;3.75;;;;;13.12;60.77;100575.47;2079900;28;45324;-67
2023/04/25 00:07:58;;;;;;;;;5.33;3.33;;;;;13.11;60.72;100581.72;2071535;28;46246;-67
2023/04/25 00:08:58;;;;;;;;;11.20;10.00;;;;;13.10;60.70;100583.53;2071656;28;46243;-69
2023/04/25 00:09:59;;;;;;;;;19.75;18.25;;;;;13.10;61.22;100580.00;2079657;28;46836;-67
2023/04/25 00:10:59;;;;;;;;;15.25;12.75;;;;;13.09;61.39;100578.25;2079219;28;46338;-69
2023/04/25 00:12:01;;;;;;;;;8.00;6.75;;;;;13.07;60.95;100574.75;2079542;28;46728;-68
2023/04/25 00:13:02;;;;;;;;;4.25;4.25;;;;;13.07;60.93;100583.59;2079952;28;45688;-68
2023/04/25 00:14:03;;;;;;;;;4.40;3.80;;;;;13.04;60.90;100578.38;2079705;28;46056;-69
2023/04/25 00:15:04;;;;;;;;;4.00;4.00;;;;;13.04;60.89;100578.38;2079576;28;46500;-68
2023/04/25 00:16:05;;;;;;;;;4.33;4.33;;;;;13.02;60.87;100577.56;2080054;28;46248;-68
2023/04/25 00:17:05;;;;;;;;;6.33;6.33;;;;;13.01;61.00;100570.50;2080713;28;46310;-68
2023/04/25 00:18:06;;;;;;;;;8.00;6.00;;;;;13.01;60.93;100578.50;2088739;28;46771;-67
2023/04/25 00:19:07;;;;;;;;;5.00;5.00;;;;;12.99;60.88;100579.47;2097085;28;46569;-68
2023/04/25 00:20:10;;;;;;;;;7.00;6.40;;;;;12.98;61.07;100581.28;2095470;28;46717;-68
2023/04/25 00:21:11;;;;;;;;;7.20;6.20;;;;;12.97;61.09;100579.53;2088959;28;46961;-68
2023/04/25 00:22:13;;;;;;;;;5.67;5.00;;;;;12.96;60.76;100578.66;2096096;28;46510;-68
2023/04/25 00:23:17;;;;;;;;;5.75;5.00;;;;;12.93;60.84;100578.75;2096666;28;46668;-67
2023/04/25 00:24:17;;;;;;;;;7.00;7.00;;;;;12.91;60.93;100569.06;2096654;28;46333;-67
2023/04/25 00:25:18;;;;;;;;;6.00;6.00;;;;;12.89;61.06;100574.44;2097479;28;46478;-67
2023/04/25 00:26:18;;;;;;;;;5.67;5.00;;;;;12.87;61.10;100576.31;2096063;28;45878;-68
2023/04/25 00:27:19;;;;;;;;;5.25;4.00;;;;;12.88;60.97;100571.84;2088366;28;46603;-67
2023/04/25 00:28:19;;;;;;;;;5.75;5.75;;;;;12.87;61.02;100580.75;2092734;28;45628;-67
2023/04/25 00:29:19;;;;;;;;;7.33;6.33;;;;;12.86;61.24;100576.34;2097549;28;46634;-67
2023/04/25 00:30:20;;;;;;;;;5.75;5.25;;;;;12.84;61.33;100571.09;2085800;28;46547;-69
2023/04/25 00:31:20;;;;;;;;;7.75;6.75;;;;;12.83;61.16;100574.66;2083738;28;46045;-67
2023/04/25 00:32:20;;;;;;;;;3.00;3.00;;;;;12.82;61.17;100577.34;2088691;28;46452;-68
2023/04/25 00:33:21;;;;;;;;;5.00;4.50;;;;;12.81;61.17;100575.63;2094754;28;46407;-67
2023/04/25 00:34:21;;;;;;;;;3.00;3.00;;;;;12.79;61.03;100569.47;2083543;28;45435;-67
2023/04/25 00:35:21;;;;;;;;;6.00;6.00;;;;;12.77;61.26;100576.66;2096832;28;46338;-67
2023/04/25 00:36:22;;;;;;;;;6.00;5.00;;;;;12.76;61.41;100577.56;2092279;28;45585;-68
2023/04/25 00:37:22;;;;;;;;;3.67;3.67;;;;;12.76;61.19;100581.09;2089179;28;45730;-67
2023/04/25 00:38:22;;;;;;;;;5.67;5.67;;;;;12.74;61.33;100585.63;2093783;28;46807;-67
2023/04/25 00:39:23;;;;;;;;;4.00;4.00;;;;;12.75;61.43;100583.81;2087642;28;45625;-68
2023/04/25 00:40:24;;;;;;;;;8.67;5.67;;;;;12.73;61.50;100573.22;2088550;28;46384;-67
2023/04/25 00:41:26;;;;;;;;;16.00;16.00;;;;;12.73;61.71;100577.69;2094495;28;47695;-68
2023/04/25 00:42:26;;;;;;;;;8.25;7.25;;;;;12.75;62.16;100579.38;2096608;28;46877;-67
2023/04/25 00:43:29;;;;;;;;;6.50;6.50;;;;;12.75;62.02;100578.50;2097086;28;46394;-68
2023/04/25 00:44:30;;;;;;;;;7.25;7.00;;;;;12.75;62.05;100574.03;2096898;28;46473;-67
2023/04/25 00:45:31;;;;;;;;;5.40;4.60;;;;;12.76;61.74;100574.91;2097056;28;45581;-67
2023/04/25 00:46:31;;;;;;;;;5.33;5.00;;;;;12.75;61.38;100567.84;2088794;28;46844;-67
2023/04/25 00:47:32;;;;;;;;;5.00;4.00;;;;;12.72;61.40;100568.81;2091993;28;45855;-68
2023/04/25 00:48:33;;;;;;;;;5.50;4.00;;;;;12.68;61.84;100573.34;2097052;28;46483;-66
2023/04/25 00:49:33;;;;;;;;;6.33;5.00;;;;;12.66;61.77;100571.66;2096885;28;46699;-66
2023/04/25 00:50:35;;;;;;;;;6.00;5.00;;;;;12.65;61.76;100575.25;2095262;28;45493;-67
2023/04/25 00:51:35;;;;;;;;;5.00;5.00;;;;;12.63;61.88;100569.13;2080224;28;45596;-67
2023/04/25 00:52:38;;;;;;;;;5.33;5.33;;;;;12.62;61.72;100572.69;2087592;28;47285;-68
2023/04/25 00:53:38;;;;;;;;;5.75;5.75;;;;;12.61;61.55;100578.94;2088875;28;46026;-67
2023/04/25 00:54:39;;;;;;;;;6.00;6.00;;;;;12.59;61.80;100583.47;2088267;28;46578;-67
2023/04/25 00:55:39;;;;;;;;;5.00;4.00;;;;;12.58;61.93;100577.25;2088765;28;45505;-66
2023/04/25 00:56:40;;;;;;;;;4.50;4.00;;;;;12.58;61.92;100581.72;2088540;28;46614;-68
2023/04/25 00:57:41;;;;;;;;;3.50;3.50;;;;;12.56;61.94;100581.72;2088452;28;45132;-67
2023/04/25 00:58:42;;;;;;;;;6.20;5.60;;;;;12.55;61.72;100577.34;2089280;28;46454;-68
2023/04/25 00:59:46;;;;;;;;;4.75;4.75;;;;;12.54;61.61;100586.25;2096711;28;46802;-67
2023/04/25 01:00:48;;;;;;;;;6.60;5.80;;;;;12.51;61.57;100582.81;2096960;28;46808;-67
2023/04/25 01:01:49;;;;;;;;;5.00;5.00;;;;;12.50;61.77;100578.41;2097024;28;46105;-67
2023/04/25 01:02:50;;;;;;;;;3.00;3.00;;;;;12.51;62.11;100580.16;2097262;28;46160;-67
2023/04/25 01:03:53;;;;;;;;;4.00;4.00;;;;;12.51;62.33;100578.38;2096416;28;45937;-68
2023/04/25 01:04:53;;;;;;;;;6.20;5.20;;;;;12.52;62.18;100579.22;2096430;28;45582;-68
2023/04/25 01:05:54;;;;;;;;;5.00;5.00;;;;;12.53;61.99;100583.63;2096581;28;47088;-68
2023/04/25 01:06:55;;;;;;;;;6.00;6.00;;;;;12.52;62.14;100579.22;2096891;28;46925;-68
2023/04/25 01:07:55;;;;;;;;;5.25;5.25;;;;;12.51;62.14;100574.84;2096635;28;46512;-68
2023/04/25 01:08:56;;;;;;;;;6.75;5.00;;;;;12.52;62.24;100581.91;2097075;28;46411;-67
2023/04/25 01:09:56;;;;;;;;;5.33;5.33;;;;;12.52;62.17;100584.56;2096852;28;46107;-68
2023/04/25 01:10:57;;;;;;;;;6.00;5.00;;;;;12.51;61.96;100581.03;2096754;28;46220;-67
2023/04/25 01:11:58;;;;;;;;;7.33;5.67;;;;;12.51;61.98;100581.03;2096331;28;45757;-68
2023/04/25 01:12:58;;;;;;;;;6.00;5.50;;;;;12.52;62.26;100579.22;2096203;28;46872;-69
2023/04/25 01:13:59;;;;;;;;;6.67;4.67;;;;;12.52;62.07;100577.44;2096713;28;46950;-68
2023/04/25 01:14:59;;;;;;;;;4.00;4.00;;;;;12.52;61.92;100581.91;2096883;28;46854;-67
2023/04/25 01:16:01;;;;;;;;;5.00;5.00;;;;;12.50;61.82;100579.28;2096636;28;46463;-68
2023/04/25 01:17:01;;;;;;;;;6.75;5.00;;;;;12.49;62.03;100582.88;2092072;28;45861;-67
2023/04/25 01:18:03;;;;;;;;;6.67;6.67;;;;;12.48;62.25;100574.94;2088286;28;46094;-67
2023/04/25 01:19:11;;;;;;;;;4.25;4.25;;;;;12.47;61.89;100575.84;2088248;28;46975;-68
2023/04/25 01:20:12;;;;;;;;;5.40;5.40;;;;;12.44;61.98;100574.13;2088128;28;46378;-68
2023/04/25 01:21:13;;;;;;;;;5.33;5.33;;;;;12.42;61.99;100568.00;2088599;28;45756;-67
2023/04/25 01:22:14;;;;;;;;;6.80;4.20;;;;;12.40;61.89;100572.50;2095983;28;47539;-66
2023/04/25 01:23:14;;;;;;;;;5.75;5.00;;;;;12.37;61.72;100569.94;2096660;28;45475;-68
2023/04/25 01:24:15;;;;;;;;;8.00;6.33;;;;;12.36;62.07;100570.88;2096541;28;46041;-67
2023/04/25 01:25:16;;;;;;;;;5.67;5.67;;;;;12.34;61.92;100570.91;2091879;28;46910;-68
2023/04/25 01:26:17;;;;;;;;;4.25;4.00;;;;;12.32;62.03;100567.44;2088062;28;46873;-68
2023/04/25 01:27:18;;;;;;;;;7.00;6.00;;;;;12.32;62.30;100561.22;2096976;28;46723;-67
2023/04/25 01:28:19;;;;;;;;;4.67;4.67;;;;;12.32;62.10;100566.53;2096830;28;46662;-67
2023/04/25 01:29:20;;;;;;;;;4.00;4.00;;;;;12.31;62.28;100565.66;2096437;28;46152;-67
2023/04/25 01:30:21;;;;;;;;;5.00;5.00;;;;;12.31;62.45;100564.81;2085603;28;47001;-67
2023/04/25 01:31:21;;;;;;;;;3.00;3.00;;;;;12.32;62.45;100571.88;2081719;28;46400;-68
2023/04/25 01:32:23;;;;;;;;;5.00;5.00;;;;;12.33;62.33;100570.97;2087941;28;46941;-67
2023/04/25 01:33:23;;;;;;;;;7.20;5.20;;;;;12.34;62.37;100568.25;2087946;28;46345;-69
2023/04/25 01:34:24;;;;;;;;;5.00;5.00;;;;;12.33;62.10;100566.53;2088055;28;46414;-67
2023/04/25 01:35:25;;;;;;;;;6.00;6.00;;;;;12.32;62.40;100567.44;2088682;28;47158;-67
2023/04/25 01:36:26;;;;;;;;;7.75;7.50;;;;;12.31;62.05;100570.13;2088308;28;46696;-67
2023/04/25 01:37:27;;;;;;;;;7.20;6.80;;;;;12.31;62.51;100575.44;2088268;28;47837;-68
2023/04/25 01:38:28;;;;;;;;;6.00;5.33;;;;;12.30;62.60;100577.22;2092659;28;46232;-67
2023/04/25 01:39:28;;;;;;;;;5.00;4.00;;;;;12.30;62.60;100573.69;2085604;28;46889;-68
2023/04/25 01:40:30;;;;;;;;;6.00;6.00;;;;;12.30;62.40;100577.22;2087295;28;45878;-67
2023/04/25 01:41:31;;;;;;;;;7.25;7.00;;;;;12.31;62.44;100578.97;2088118;28;46696;-67
2023/04/25 01:42:36;;;;;;;;;6.00;4.67;;;;;12.29;62.62;100583.47;2088259;28;46858;-69
2023/04/25 01:43:36;;;;;;;;;5.75;5.75;;;;;12.30;62.53;100576.38;2088386;28;46427;-67
2023/04/25 01:44:37;;;;;;;;;6.67;6.67;;;;;12.30;62.86;100574.56;2087481;28;46519;-68
2023/04/25 01:45:40;;;;;;;;;6.33;5.33;;;;;12.29;62.92;100571.97;2087892;28;45358;-68
2023/04/25 01:46:41;;;;;;;;;6.00;6.00;;;;;12.27;62.41;100573.81;2087871;28;46116;-67
2023/04/25 01:47:43;;;;;;;;;5.00;5.00;;;;;12.25;62.84;100573.00;2088221;28;46623;-69
2023/04/25 01:48:44;;;;;;;;;6.25;6.25;;;;;12.23;62.73;100577.50;2088134;28;45792;-67
2023/04/25 01:49:44;;;;;;;;;6.67;6.67;;;;;12.21;62.62;100582.00;2087465;28;47047;-67
2023/04/25 01:50:45;;;;;;;;;6.67;6.67;;;;;12.20;62.93;100581.13;2088582;28;45892;-67
2023/04/25 01:51:45;;;;;;;;;5.67;5.67;;;;;12.20;62.93;100574.94;2088767;28;45753;-66
2023/04/25 01:52:45;;;;;;;;;5.67;5.67;;;;;12.21;63.08;100576.66;2088309;28;45756;-67
2023/04/25 01:53:46;;;;;;;;;8.67;6.67;;;;;12.23;63.26;100575.69;2087872;28;46636;-68
2023/04/25 01:54:47;;;;;;;;;6.75;6.75;;;;;12.23;63.09;100582.81;2088192;28;46547;-67
2023/04/25 01:55:48;;;;;;;;;7.00;7.00;;;;;12.27;63.20;100576.47;2088098;28;46503;-67
2023/04/25 01:56:51;;;;;;;;;7.67;7.67;;;;;12.27;63.36;100584.44;2088321;28;45459;-67
2023/04/25 01:57:51;;;;;;;;;5.00;5.00;;;;;12.27;62.88;100576.47;2088341;28;45726;-68
2023/04/25 01:58:52;;;;;;;;;8.00;6.00;;;;;12.26;62.94;100577.38;2088224;28;46690;-68
2023/04/25 01:59:58;;;;;;;;;6.00;6.00;;;;;12.25;63.19;100573.00;2087797;28;46832;-67
2023/04/25 02:00:59;;;;;;;;;6.00;6.00;;;;;12.26;63.22;100574.72;2094343;28;47478;-67
2023/04/25 02:01:59;;;;;;;;;6.67;5.67;;;;;12.26;63.24;100572.94;2095917;28;46398;-69
2023/04/25 02:02:59;;;;;;;;;7.00;5.67;;;;;12.27;63.47;100574.69;2096774;28;45624;-67
2023/04/25 02:04:00;;;;;;;;;5.67;5.33;;;;;12.28;63.65;100572.88;2096246;28;46163;-69
2023/04/25 02:05:01;;;;;;;;;7.33;6.67;;;;;12.27;63.02;100568.50;2096359;28;45676;-67
2023/04/25 02:06:01;;;;;;;;;6.67;6.00;;;;;12.29;63.17;100579.94;2095954;28;46416;-68
2023/04/25 02:07:03;;;;;;;;;7.00;7.00;;;;;12.29;63.50;100577.28;2096601;28;45637;-68
2023/04/25 02:08:06;;;;;;;;;5.25;5.25;;;;;12.29;63.31;100580.81;2096699;28;45914;-68
2023/04/25 02:09:06;;;;;;;;;7.25;7.25;;;;;12.28;63.38;100581.75;2096119;28;46601;-68
2023/04/25 02:10:06;;;;;;;;;7.67;6.00;;;;;12.31;63.55;100586.09;2096657;28;46321;-67
2023/04/25 02:11:07;;;;;;;;;8.00;6.00;;;;;12.31;63.25;100581.63;2096291;28;46809;-68
2023/04/25 02:12:09;;;;;;;;;11.33;8.67;;;;;12.32;63.09;100593.16;2096789;28;45951;-67
2023/04/25 02:13:10;;;;;;;;;6.00;6.00;;;;;12.31;63.08;100578.97;2096427;28;45825;-67
2023/04/25 02:14:10;;;;;;;;;7.67;7.67;;;;;12.32;63.20;100590.50;2096207;28;45768;-67
2023/04/25 02:15:10;;;;;;;;;6.67;6.67;;;;;12.34;63.07;100586.88;2096528;28;46100;-68
2023/04/25 02:16:11;;;;;;;;;7.67;7.67;;;;;12.34;63.15;100589.53;2104118;28;46249;-67
2023/04/25 02:17:12;;;;;;;;;10.00;8.33;;;;;12.34;62.74;100583.34;2098277;28;46141;-68
2023/04/25 02:18:12;;;;;;;;;7.25;6.25;;;;;12.36;63.12;100592.16;2087681;28;46893;-68
2023/04/25 02:19:13;;;;;;;;;6.67;5.33;;;;;12.36;63.03;100586.84;2087269;28;45635;-68
2023/04/25 02:20:13;;;;;;;;;4.00;4.00;;;;;12.36;63.02;100582.38;2087977;28;46674;-68
2023/04/25 02:21:14;;;;;;;;;6.00;6.00;;;;;12.38;62.87;100582.34;2088410;28;45700;-67
2023/04/25 02:22:14;;;;;;;;;10.00;8.67;;;;;12.40;62.96;100590.25;2103608;28;46572;-67
2023/04/25 02:23:15;;;;;;;;;6.00;6.00;;;;;12.40;62.82;100587.59;2104240;28;46316;-68
2023/04/25 02:24:15;;;;;;;;;6.00;6.00;;;;;12.40;62.79;100585.81;2096822;28;46604;-68
2023/04/25 02:25:17;;;;;;;;;8.00;8.00;;;;;12.42;62.76;100591.94;2096449;28;46491;-69
2023/04/25 02:26:17;;;;;;;;;5.25;4.50;;;;;12.43;62.69;100591.03;2095633;28;46710;-68
2023/04/25 02:27:18;;;;;;;;;6.00;6.00;;;;;12.44;62.49;100586.56;2087534;28;46370;-68
2023/04/25 02:28:18;;;;;;;;;7.00;6.67;;;;;12.44;62.54;100586.56;2095671;28;47454;-67
2023/04/25 02:29:18;;;;;;;;;5.33;5.33;;;;;12.44;62.48;100591.91;2096414;28;46168;-68
2023/04/25 02:30:19;;;;;;;;;9.67;7.00;;;;;12.43;62.33;100583.03;2085808;28;45663;-67
2023/04/25 02:31:19;;;;;;;;;8.00;6.00;;;;;12.43;62.54;100591.03;2085577;28;45820;-67
2023/04/25 02:32:20;;;;;;;;;5.33;5.00;;;;;12.43;62.64;100588.38;2090707;28;46894;-66
2023/04/25 02:33:20;;;;;;;;;7.00;7.00;;;;;12.43;62.64;100583.03;2094038;28;46182;-68
2023/04/25 02:34:21;;;;;;;;;7.67;7.67;;;;;12.44;62.45;100582.13;2096542;28;46425;-68
2023/04/25 02:35:21;;;;;;;;;10.67;8.00;;;;;12.44;62.35;100584.78;2096449;28;45867;-68
2023/04/25 02:36:21;;;;;;;;;7.67;7.00;;;;;12.44;62.32;100582.13;2096556;28;46635;-67
2023/04/25 02:37:22;;;;;;;;;6.33;6.33;;;;;12.42;62.33;100586.63;2095875;28;45819;-68
2023/04/25 02:38:22;;;;;;;;;10.25;8.00;;;;;12.40;62.41;100583.16;2094004;28;45795;-68
2023/04/25 02:39:24;;;;;;;;;7.67;5.67;;;;;12.40;62.49;100587.59;2090577;28;45650;-69
2023/04/25 02:40:25;;;;;;;;;9.75;8.50;;;;;12.38;62.21;100588.53;2094221;28;45800;-68
2023/04/25 02:41:25;;;;;;;;;8.00;6.00;;;;;12.35;62.49;100590.41;2102781;28;45963;-68
2023/04/25 02:42:26;;;;;;;;;9.00;8.00;;;;;12.34;62.54;100586.88;2096254;28;46328;-67
2023/04/25 02:43:27;;;;;;;;;5.75;4.50;;;;;12.32;62.40;100585.16;2096529;28;46512;-68
2023/04/25 02:44:27;;;;;;;;;10.67;8.00;;;;;12.32;62.59;100594.06;2096288;28;46888;-68
2023/04/25 02:45:27;;;;;;;;;8.67;7.00;;;;;12.29;62.53;100585.28;2103433;28;46396;-68
2023/04/25 02:46:27;;;;;;;;;9.67;8.33;;;;;12.27;62.42;100590.63;2103772;28;46427;-67
2023/04/25 02:47:28;;;;;;;;;7.00;7.00;;;;;12.27;62.40;100595.09;2093618;28;46292;-66
2023/04/25 02:48:29;;;;;;;;;8.00;7.67;;;;;12.22;62.83;100592.59;2095875;28;46253;-67
2023/04/25 02:49:29;;;;;;;;;9.00;6.00;;;;;12.20;62.89;100590.91;2096083;28;46119;-67
2023/04/25 02:50:29;;;;;;;;;8.33;6.33;;;;;12.19;63.10;100590.00;2088260;28;45563;-67
2023/04/25 02:51:30;;;;;;;;;8.67;7.67;;;;;12.19;62.73;100591.78;2088357;28;46076;-68
2023/04/25 02:52:30;;;;;;;;;7.00;6.33;;;;;12.18;62.97;100592.69;2099374;28;45981;-67
2023/04/25 02:53:31;;;;;;;;;9.33;9.33;;;;;12.17;63.10;100590.97;2103811;28;45685;-68
2023/04/25 02:54:31;;;;;;;;;9.00;7.33;;;;;12.17;62.75;100594.50;2096241;28;46665;-67
2023/04/25 02:55:31;;;;;;;;;7.00;6.33;;;;;12.16;63.25;100591.88;2095819;28;46956;-67
2023/04/25 02:56:32;;;;;;;;;10.00;9.00;;;;;12.16;62.96;100592.75;2096324;28;46261;-68
2023/04/25 02:57:32;;;;;;;;;9.00;9.00;;;;;12.16;63.14;100598.06;2089470;28;46088;-68
2023/04/25 02:58:32;;;;;;;;;10.00;9.00;;;;;12.17;63.14;100601.59;2089284;28;46419;-67
2023/04/25 02:59:33;;;;;;;;;5.67;4.33;;;;;12.16;63.10;100594.53;2097699;28;45787;-67
2023/04/25 03:00:33;;;;;;;;;12.50;7.75;;;;;12.16;63.12;100597.19;2097416;28;45595;-67
2023/04/25 03:01:34;;;;;;;;;10.00;9.00;;;;;12.14;63.03;100599.91;2096921;28;46705;-68
2023/04/25 03:02:34;;;;;;;;;7.33;7.00;;;;;12.13;62.84;100606.16;2097539;28;46229;-68
2023/04/25 03:03:34;;;;;;;;;10.00;10.00;;;;;12.10;63.19;100608.03;2097781;28;46811;-67
2023/04/25 03:04:35;;;;;;;;;10.33;9.33;;;;;12.07;63.33;100601.91;2097657;28;46498;-68
2023/04/25 03:05:35;;;;;;;;;7.00;7.00;;;;;12.07;63.18;100606.34;2097731;28;46383;-68
2023/04/25 03:06:36;;;;;;;;;8.00;8.00;;;;;12.05;63.37;100601.03;2097689;28;46602;-67
2023/04/25 03:07:36;;;;;;;;;8.67;8.67;;;;;12.03;63.07;100612.66;2097463;28;47844;-68
2023/04/25 03:08:36;;;;;;;;;10.00;10.00;;;;;12.02;63.42;100605.59;2097357;28;45759;-68
2023/04/25 03:09:37;;;;;;;;;10.25;9.00;;;;;11.98;63.34;100599.50;2097485;28;46633;-67
2023/04/25 03:10:38;;;;;;;;;9.00;9.00;;;;;11.97;63.27;100605.75;2097443;28;46732;-68
2023/04/25 03:11:38;;;;;;;;;11.80;11.20;;;;;11.97;63.64;100599.56;2097430;28;46500;-67
2023/04/25 03:12:39;;;;;;;;;9.00;9.00;;;;;11.96;63.35;100600.47;2096623;28;46395;-68
2023/04/25 03:13:39;;;;;;;;;12.00;11.00;;;;;11.95;63.47;100599.59;2091221;28;46427;-68
2023/04/25 03:14:40;;;;;;;;;9.67;8.33;;;;;11.94;63.41;100597.84;2089375;28;45411;-67
2023/04/25 03:15:40;;;;;;;;;8.00;8.00;;;;;11.94;63.50;100588.97;2089557;28;45009;-67
2023/04/25 03:16:40;;;;;;;;;7.00;7.00;;;;;11.96;63.64;100593.38;2088285;28;47916;-67
2023/04/25 03:17:41;;;;;;;;;10.00;10.00;;;;;11.95;63.66;100585.44;2088736;28;45477;-68
2023/04/25 03:18:41;;;;;;;;;8.67;8.67;;;;;11.96;63.45;100592.50;2089256;28;46627;-67
2023/04/25 03:19:41;;;;;;;;;10.75;10.75;;;;;11.96;63.87;100589.84;2088870;28;45782;-67
2023/04/25 03:20:42;;;;;;;;;9.33;9.33;;;;;11.97;63.63;100588.91;2090715;28;45535;-68
2023/04/25 03:21:43;;;;;;;;;11.33;9.00;;;;;11.98;63.55;100594.19;2092619;28;45367;-68
2023/04/25 03:22:44;;;;;;;;;10.50;10.50;;;;;11.99;63.92;100592.41;2097366;28;46598;-68
2023/04/25 03:23:44;;;;;;;;;9.33;9.33;;;;;12.00;63.68;100596.78;2097724;28;45571;-67
2023/04/25 03:24:45;;;;;;;;;7.00;7.00;;;;;11.98;63.73;100591.53;2097683;28;44984;-67
2023/04/25 03:25:45;;;;;;;;;8.67;6.33;;;;;11.98;63.71;100593.31;2097608;28;45874;-67
2023/04/25 03:26:45;;;;;;;;;9.00;8.67;;;;;11.99;63.84;100597.72;2097711;28;45601;-67
2023/04/25 03:27:46;;;;;;;;;12.25;9.75;;;;;11.99;63.78;100598.59;2097438;28;46564;-67
2023/04/25 03:28:46;;;;;;;;;9.00;9.00;;;;;11.98;63.21;100604.81;2096971;28;46253;-67
2023/04/25 03:29:46;;;;;;;;;9.33;9.00;;;;;11.98;63.77;100606.63;2094451;28;46673;-67
2023/04/25 03:30:47;;;;;;;;;10.50;9.75;;;;;11.99;63.63;100597.72;2081148;28;45620;-67
2023/04/25 03:31:47;;;;;;;;;13.00;10.50;;;;;11.98;63.72;100595.97;2086808;28;45875;-67
2023/04/25 03:32:47;;;;;;;;;9.33;9.00;;;;;11.98;64.02;100596.84;2089056;28;46574;-67
2023/04/25 03:33:48;;;;;;;;;9.25;9.25;;;;;12.01;63.94;100602.06;2089182;28;46203;-68
2023/04/25 03:34:48;;;;;;;;;7.67;7.67;;;;;12.02;64.09;100590.50;2093484;28;44973;-67
2023/04/25 03:35:49;;;;;;;;;10.67;10.33;;;;;12.04;63.92;100594.00;2097667;28;45953;-67
2023/04/25 03:36:50;;;;;;;;;10.25;10.00;;;;;12.06;63.82;100593.94;2097411;28;46289;-67
2023/04/25 03:37:50;;;;;;;;;12.33;12.33;;;;;12.07;63.91;100601.03;2092204;28;45839;-68
2023/04/25 03:38:50;;;;;;;;;12.00;12.00;;;;;12.07;63.93;100590.38;2091124;28;47005;-67
2023/04/25 03:39:51;;;;;;;;;9.00;9.00;;;;;12.06;64.04;100592.16;2094667;28;46331;-67
2023/04/25 03:40:51;;;;;;;;;12.67;9.67;;;;;12.06;63.68;100588.63;2096980;28;46278;-67
2023/04/25 03:41:52;;;;;;;;;10.00;8.67;;;;;12.03;63.64;100602.88;2089063;28;47011;-67
2023/04/25 03:42:52;;;;;;;;;11.33;9.00;;;;;12.01;63.78;100593.22;2092826;28;46152;-69
2023/04/25 03:43:52;;;;;;;;;11.00;10.00;;;;;11.98;63.79;100593.31;2097493;28;46537;-68
2023/04/25 03:44:52;;;;;;;;;6.00;6.00;;;;;11.97;63.69;100592.44;2097552;28;46449;-67
2023/04/25 03:45:53;;;;;;;;;13.00;12.00;;;;;11.96;63.66;100600.47;2097132;28;45811;-68
2023/04/25 03:46:53;;;;;;;;;12.25;11.75;;;;;11.95;63.87;100599.59;2097615;28;45410;-67
2023/04/25 03:47:54;;;;;;;;;9.67;8.33;;;;;11.96;63.99;100603.13;2097422;28;46145;-67
2023/04/25 03:48:54;;;;;;;;;11.33;9.67;;;;;11.97;64.12;100599.56;2097012;28;46317;-67
2023/04/25 03:49:54;;;;;;;;;8.33;8.33;;;;;11.96;63.99;100598.69;2097584;28;46605;-67
2023/04/25 03:50:55;;;;;;;;;10.67;10.33;;;;;11.97;63.92;100597.75;2097021;28;45898;-69
2023/04/25 03:51:55;;;;;;;;;11.00;10.00;;;;;11.97;63.83;100594.22;2096435;28;46508;-68
2023/04/25 03:52:55;;;;;;;;;9.67;9.67;;;;;11.98;64.03;100598.63;2105292;28;46326;-67
2023/04/25 03:53:56;;;;;;;;;8.00;8.00;;;;;11.99;63.92;100597.72;2105217;28;45454;-68
2023/04/25 03:54:56;;;;;;;;;8.75;7.75;;;;;11.98;64.09;100599.50;2097145;28;46668;-67
2023/04/25 03:55:56;;;;;;;;;8.00;8.00;;;;;11.98;64.01;100603.94;2097586;28;45616;-68
2023/04/25 03:56:57;;;;;;;;;10.00;8.00;;;;;12.00;63.99;100599.44;2097342;28;46026;-67
2023/04/25 03:57:58;;;;;;;;;11.50;10.50;;;;;11.98;63.68;100598.63;2096543;28;45475;-68
2023/04/25 03:58:58;;;;;;;;;5.00;5.00;;;;;11.99;63.99;100592.41;2097288;28;46680;-67
2023/04/25 03:59:59;;;;;;;;;12.33;12.00;;;;;11.98;64.07;100603.94;2105460;28;45628;-67
2023/04/25 04:01:00;;;;;;;;;9.33;9.33;;;;;11.99;63.91;100608.34;2099059;28;46373;-68
2023/04/25 04:02:00;;;;;;;;;7.00;6.00;;;;;11.98;64.08;100603.94;2089182;28;45660;-67
2023/04/25 04:03:00;;;;;;;;;7.67;7.67;;;;;11.96;63.94;100604.00;2089309;28;46142;-68
2023/04/25 04:04:01;;;;;;;;;10.00;10.00;;;;;11.97;64.17;100607.53;2089071;28;45577;-67
2023/04/25 04:05:01;;;;;;;;;10.00;10.00;;;;;11.96;63.96;100609.31;2088706;28;46164;-67
2023/04/25 04:06:03;;;;;;;;;11.75;11.50;;;;;11.97;64.01;100610.19;2095379;28;45854;-67
2023/04/25 04:07:04;;;;;;;;;11.00;10.00;;;;;11.97;64.25;100605.75;2088527;28;46654;-66
2023/04/25 04:08:05;;;;;;;;;10.50;10.00;;;;;12.00;64.13;100607.44;2089088;28;46150;-68
2023/04/25 04:09:08;;;;;;;;;11.00;10.00;;;;;12.02;64.20;100613.56;2093404;28;45912;-68
2023/04/25 04:10:10;;;;;;;;;9.75;8.50;;;;;12.01;64.25;100609.16;2096857;28;46514;-67
2023/04/25 04:11:10;;;;;;;;;8.80;7.80;;;;;12.01;63.97;100612.72;2097421;28;46505;-68
2023/04/25 04:12:10;;;;;;;;;10.00;10.00;;;;;12.01;63.94;100609.16;2097303;28;46286;-67
2023/04/25 04:13:11;;;;;;;;;11.50;10.75;;;;;11.98;63.80;100607.47;2097571;28;45667;-68
2023/04/25 04:14:11;;;;;;;;;9.67;9.67;;;;;11.99;63.90;100603.03;2096502;28;45520;-68
2023/04/25 04:15:11;;;;;;;;;9.00;9.00;;;;;12.00;64.35;100610.09;2096802;28;46505;-68
2023/04/25 04:16:12;;;;;;;;;12.75;11.00;;;;;12.01;64.20;100607.38;2097407;28;46223;-68
2023/04/25 04:17:12;;;;;;;;;11.00;10.00;;;;;12.03;64.05;100613.53;2091295;28;45534;-68
2023/04/25 04:18:12;;;;;;;;;11.67;11.00;;;;;12.04;64.21;100611.75;2088690;28;46309;-68
2023/04/25 04:19:13;;;;;;;;;9.25;9.25;;;;;12.04;64.01;100612.59;2088954;28;46827;-67
2023/04/25 04:20:13;;;;;;;;;8.25;8.25;;;;;12.05;64.04;100613.47;2090470;28;46155;-69
2023/04/25 04:21:13;;;;;;;;;10.00;10.00;;;;;12.06;64.17;100618.75;2096630;28;46223;-67
2023/04/25 04:22:14;;;;;;;;;12.67;11.67;;;;;12.06;64.11;100609.91;2104129;28;46343;-68
2023/04/25 04:23:14;;;;;;;;;9.50;8.75;;;;;12.07;64.09;100620.53;2096973;28;46193;-68
2023/04/25 04:24:16;;;;;;;;;7.25;6.75;;;;;12.10;64.05;100619.56;2087568;28;46624;-67
2023/04/25 04:25:17;;;;;;;;;8.40;8.40;;;;;12.10;64.17;100622.22;2082615;28;46141;-67
2023/04/25 04:26:18;;;;;;;;;11.00;9.67;;;;;12.12;63.82;100619.50;2088878;28;45914;-67
2023/04/25 04:27:19;;;;;;;;;12.00;10.75;;;;;12.12;63.93;100625.69;2088609;28;46771;-68
2023/04/25 04:28:20;;;;;;;;;9.00;9.00;;;;;12.13;64.01;100626.56;2088811;28;48102;-66
2023/04/25 04:29:20;;;;;;;;;10.00;9.00;;;;;12.15;64.01;100630.03;2089179;28;46078;-67
2023/04/25 04:30:25;;;;;;;;;8.75;8.00;;;;;12.16;64.04;100632.66;2088316;28;46445;-67
2023/04/25 04:31:25;;;;;;;;;11.60;10.80;;;;;12.17;63.79;100625.53;2088944;28;45571;-66
2023/04/25 04:32:27;;;;;;;;;11.00;11.00;;;;;12.16;63.90;100630.00;2087845;28;46437;-67
2023/04/25 04:33:28;;;;;;;;;10.80;10.80;;;;;12.17;63.83;100633.53;2088049;28;46364;-67
2023/04/25 04:34:28;;;;;;;;;10.67;9.00;;;;;12.16;63.71;100634.44;2087888;28;45771;-68
2023/04/25 04:35:29;;;;;;;;;11.33;11.00;;;;;12.17;63.84;100636.19;2096825;28;46613;-67
2023/04/25 04:36:29;;;;;;;;;10.00;10.00;;;;;12.18;64.00;100637.94;2097238;28;46702;-67
2023/04/25 04:37:30;;;;;;;;;10.00;9.00;;;;;12.19;64.02;100637.00;2097120;28;46239;-67
2023/04/25 04:38:30;;;;;;;;;2.67;2.00;;;;;12.21;63.84;100644.06;2091582;28;46156;-68
2023/04/25 04:39:31;;;;;;;;;13.50;11.00;;;;;12.19;63.68;100629.91;2087172;28;46003;-67
2023/04/25 04:40:32;;;;;;;;;9.00;9.00;;;;;12.20;63.72;100642.31;2079663;28;45870;-67
2023/04/25 04:41:32;;;;;;;;;10.33;10.00;;;;;12.20;63.63;100644.09;2085482;28;46751;-67